createdAt,value
2019-06-01T00:02:16.185Z,19.47
2019-06-01T00:04:45.244Z,15.93
2019-06-01T00:07:13.422Z,17.50
2019-06-01T00:09:41.496Z,15.83
2019-06-01T00:12:09.594Z,16.27
2019-06-01T00:14:37.735Z,14.33
2019-06-01T00:17:05.435Z,11.57
2019-06-01T00:19:33.324Z,13.63
2019-06-01T00:22:00.986Z,13.00
2019-06-01T00:24:28.648Z,11.93
2019-06-01T00:26:56.697Z,10.23
2019-06-01T00:29:24.439Z,11.13
2019-06-01T00:31:54.163Z,10.10
2019-06-01T00:34:21.828Z,14.80
2019-06-01T00:36:49.935Z,12.53
2019-06-01T00:39:18.134Z,12.50
2019-06-01T00:41:45.983Z,13.87
2019-06-01T00:44:14.070Z,15.90
2019-06-01T00:46:42.522Z,15.90
2019-06-01T00:49:10.768Z,14.03
2019-06-01T00:51:38.679Z,28.03
2019-06-01T00:54:06.778Z,24.87
2019-06-01T00:56:34.985Z,12.97
2019-06-01T00:59:03.001Z,6.30
2019-06-01T01:01:31.099Z,9.57
2019-06-01T01:03:58.861Z,10.23
2019-06-01T01:06:26.511Z,14.37
2019-06-01T01:08:55.318Z,13.40
2019-06-01T01:11:23.151Z,9.77
2019-06-01T01:13:51.363Z,10.17
2019-06-01T01:16:19.575Z,12.57
2019-06-01T01:18:47.780Z,14.60
2019-06-01T01:21:15.560Z,13.17
2019-06-01T01:23:43.240Z,16.50
2019-06-01T01:26:11.045Z,17.80
2019-06-01T01:28:39.080Z,12.90
2019-06-01T01:31:13.924Z,10.70
2019-06-01T01:33:36.066Z,13.63
2019-06-01T01:36:04.013Z,12.87
2019-06-01T01:38:31.687Z,12.60
2019-06-01T01:40:59.539Z,13.00
2019-06-01T01:43:27.488Z,13.73
2019-06-01T01:45:56.863Z,14.63
2019-06-01T01:48:25.102Z,12.33
2019-06-01T01:50:52.765Z,15.30
2019-06-01T01:53:20.892Z,12.97
2019-06-01T01:55:48.986Z,10.13
2019-06-01T01:58:16.661Z,10.83
2019-06-01T02:00:45.401Z,12.00
2019-06-01T02:03:13.482Z,18.37
2019-06-01T02:05:41.357Z,15.87
2019-06-01T02:08:09.539Z,15.77
2019-06-01T02:10:37.711Z,10.77
2019-06-01T02:13:05.677Z,12.00
2019-06-01T02:15:33.489Z,13.70
2019-06-01T02:18:02.747Z,10.73
2019-06-01T02:20:30.569Z,11.83
2019-06-01T02:22:58.964Z,11.30
2019-06-01T02:25:26.706Z,12.53
2019-06-01T02:27:55.029Z,14.63
2019-06-01T02:30:22.945Z,16.83
2019-06-01T02:32:51.022Z,15.17
2019-06-01T02:35:18.856Z,14.30
2019-06-01T02:37:46.518Z,14.53
2019-06-01T02:40:14.603Z,16.20
2019-06-01T02:42:42.301Z,16.07
2019-06-01T02:45:13.271Z,13.23
2019-06-01T02:47:41.031Z,13.07
2019-06-01T02:50:09.058Z,15.60
2019-06-01T02:52:37.225Z,18.53
2019-06-01T02:55:09.740Z,17.80
2019-06-01T02:57:37.498Z,17.03
2019-06-01T03:00:06.749Z,20.90
2019-06-01T03:02:34.994Z,15.33
2019-06-01T03:05:03.303Z,17.53
2019-06-01T03:07:31.916Z,17.00
2019-06-01T03:10:01.091Z,16.93
2019-06-01T03:12:30.285Z,22.40
2019-06-01T03:15:00.386Z,25.90
2019-06-01T03:17:29.874Z,17.17
2019-06-01T03:19:59.539Z,14.07
2019-06-01T03:22:28.765Z,14.23
2019-06-01T03:24:58.034Z,15.97
2019-06-01T03:27:27.141Z,16.90
2019-06-01T03:29:57.931Z,15.60
2019-06-01T03:32:36.114Z,18.67
2019-06-01T03:34:55.342Z,17.70
2019-06-01T03:37:23.522Z,19.70
2019-06-01T03:39:51.233Z,17.03
2019-06-01T03:42:18.963Z,22.67
2019-06-01T03:44:47.156Z,27.03
2019-06-01T03:47:14.793Z,20.40
2019-06-01T03:49:42.809Z,26.73
2019-06-01T03:52:10.495Z,28.27
2019-06-01T03:54:38.779Z,30.23
2019-06-01T03:57:07.280Z,23.77
2019-06-01T03:59:35.422Z,30.17
2019-06-01T04:02:03.135Z,22.70
2019-06-01T04:04:31.282Z,21.00
2019-06-01T04:06:58.994Z,25.53
2019-06-01T04:09:27.076Z,45.80
2019-06-01T04:11:54.744Z,33.57
2019-06-01T04:14:22.467Z,25.23
2019-06-01T04:16:50.569Z,24.17
2019-06-01T04:19:18.249Z,23.87
2019-06-01T04:21:46.268Z,25.73
2019-06-01T04:24:14.341Z,21.60
2019-06-01T04:26:42.353Z,25.67
2019-06-01T04:29:10.386Z,30.60
2019-06-01T04:31:38.855Z,26.87
2019-06-01T04:34:06.933Z,25.37
2019-06-01T04:36:35.036Z,26.37
2019-06-01T04:39:03.426Z,32.87
2019-06-01T04:41:31.199Z,32.27
2019-06-01T04:43:59.256Z,31.37
2019-06-01T04:46:27.346Z,28.67
2019-06-01T04:48:55.427Z,26.97
2019-06-01T04:51:23.458Z,29.87
2019-06-01T04:53:51.158Z,30.23
2019-06-01T04:56:18.784Z,28.50
2019-06-01T04:58:46.470Z,26.80
2019-06-01T05:01:15.134Z,29.73
2019-06-01T05:03:42.836Z,29.20
2019-06-01T05:06:11.357Z,26.20
2019-06-01T05:08:39.315Z,20.13
2019-06-01T05:11:08.654Z,22.70
2019-06-01T05:13:37.147Z,21.70
2019-06-01T05:16:05.893Z,21.55
2019-06-01T05:18:33.673Z,22.13
2019-06-01T05:21:01.380Z,17.23
2019-06-01T05:23:29.386Z,20.63
2019-06-01T05:25:57.095Z,23.13
2019-06-01T05:28:25.198Z,21.60
2019-06-01T05:30:52.840Z,16.33
2019-06-01T05:33:35.264Z,17.37
2019-06-01T05:35:50.367Z,20.93
2019-06-01T05:38:18.661Z,14.83
2019-06-01T05:40:46.329Z,14.10
2019-06-01T05:43:17.600Z,15.17
2019-06-01T05:45:43.720Z,13.87
2019-06-01T05:48:13.125Z,15.10
2019-06-01T05:50:41.562Z,18.03
2019-06-01T05:53:10.439Z,17.03
2019-06-01T05:55:38.687Z,15.73
2019-06-01T05:58:06.784Z,16.00
2019-06-01T06:00:38.406Z,13.93
2019-06-01T06:03:06.152Z,16.10
2019-06-01T06:05:33.855Z,117.23
2019-06-01T06:08:01.525Z,170.03
2019-06-01T06:10:29.751Z,127.60
2019-06-01T06:12:57.554Z,71.17
2019-06-01T06:15:25.297Z,102.87
2019-06-01T06:17:53.354Z,89.07
2019-06-01T06:20:22.209Z,34.80
2019-06-01T06:22:50.364Z,89.43
2019-06-01T06:25:18.388Z,16.40
2019-06-01T06:27:46.020Z,44.20
2019-06-01T06:30:14.772Z,13.50
2019-06-01T06:32:42.586Z,11.53
2019-06-01T06:35:10.309Z,7.93
2019-06-01T06:37:38.225Z,13.67
2019-06-01T06:40:07.256Z,11.53
2019-06-01T06:42:34.946Z,25.57
2019-06-01T06:45:03.790Z,24.00
2019-06-01T06:47:31.555Z,7.33
2019-06-01T06:49:59.764Z,15.30
2019-06-01T06:52:27.608Z,9.50
2019-06-01T06:54:55.699Z,4.17
2019-06-01T06:57:24.253Z,6.47
2019-06-01T06:59:52.245Z,5.93
2019-06-01T07:02:20.851Z,6.33
2019-06-01T07:04:48.704Z,6.60
2019-06-01T07:07:17.501Z,5.43
2019-06-01T07:09:45.678Z,4.67
2019-06-01T07:12:14.305Z,6.57
2019-06-01T07:14:42.011Z,6.77
2019-06-01T07:17:09.665Z,4.10
2019-06-01T07:19:37.907Z,4.83
2019-06-01T07:22:06.051Z,5.30
2019-06-01T07:24:34.070Z,5.73
2019-06-01T07:27:01.842Z,4.03
2019-06-01T07:29:29.915Z,9.40
2019-06-01T07:31:58.036Z,5.20
2019-06-01T07:34:37.267Z,3.77
2019-06-01T07:36:55.954Z,4.20
2019-06-01T07:39:24.834Z,7.17
2019-06-01T07:41:52.792Z,6.07
2019-06-01T07:44:20.923Z,7.37
2019-06-01T07:46:49.056Z,4.57
2019-06-01T07:49:16.788Z,4.60
2019-06-01T07:51:44.832Z,5.83
2019-06-01T07:54:12.684Z,4.67
2019-06-01T07:56:40.602Z,6.63
2019-06-01T07:59:08.717Z,7.47
2019-06-01T08:01:36.859Z,7.50
2019-06-01T08:04:05.456Z,5.47
2019-06-01T08:06:33.530Z,4.67
2019-06-01T08:09:01.315Z,7.50
2019-06-01T08:11:32.738Z,9.60
2019-06-01T08:13:58.770Z,7.30
2019-06-01T08:16:27.894Z,4.67
2019-06-01T08:18:55.875Z,10.43
2019-06-01T08:21:23.972Z,4.13
2019-06-01T08:23:52.138Z,14.03
2019-06-01T08:26:20.124Z,7.30
2019-06-01T08:28:47.992Z,2.90
2019-06-01T08:31:15.751Z,5.30
2019-06-01T08:33:43.437Z,5.10
2019-06-01T08:36:11.109Z,43.20
2019-06-01T08:38:39.249Z,200.00
2019-06-01T08:41:07.313Z,134.50
2019-06-01T08:43:35.063Z,55.87
2019-06-01T08:46:03.187Z,32.90
2019-06-01T08:48:31.858Z,4.70
2019-06-01T08:50:59.654Z,5.50
2019-06-01T08:53:27.894Z,6.03
2019-06-01T08:55:56.285Z,8.70
2019-06-01T08:58:24.251Z,10.43
2019-06-01T09:00:51.914Z,5.03
2019-06-01T09:03:19.936Z,10.77
2019-06-01T09:05:47.597Z,11.43
2019-06-01T09:08:15.790Z,15.50
2019-06-01T09:10:43.465Z,15.23
2019-06-01T09:13:11.686Z,4.60
2019-06-01T09:15:39.478Z,6.97
2019-06-01T09:18:07.515Z,4.10
2019-06-01T09:20:38.739Z,4.97
2019-06-01T09:23:05.356Z,5.93
2019-06-01T09:25:33.814Z,4.10
2019-06-01T09:28:01.694Z,7.27
2019-06-01T09:30:29.916Z,4.47
2019-06-01T09:32:57.757Z,4.63
2019-06-01T09:35:45.955Z,5.80
2019-06-01T09:37:55.364Z,5.00
2019-06-01T09:40:23.519Z,4.50
2019-06-01T09:42:51.211Z,4.80
2019-06-01T09:45:18.889Z,4.90
2019-06-01T09:47:46.941Z,4.70
2019-06-01T09:50:15.049Z,4.90
2019-06-01T09:52:42.796Z,3.70
2019-06-01T09:55:10.740Z,6.20
2019-06-01T09:57:38.701Z,16.37
2019-06-01T10:00:10.130Z,12.80
2019-06-01T10:02:38.364Z,5.90
2019-06-01T10:05:06.612Z,5.67
2019-06-01T10:07:34.858Z,5.53
2019-06-01T10:10:02.802Z,4.43
2019-06-01T10:12:30.480Z,5.30
2019-06-01T10:14:58.654Z,4.57
2019-06-01T10:17:26.343Z,4.67
2019-06-01T10:19:54.465Z,5.77
2019-06-01T10:22:22.647Z,4.27
2019-06-01T10:24:50.309Z,5.00
2019-06-01T10:27:18.448Z,7.77
2019-06-01T10:29:46.216Z,4.07
2019-06-01T10:32:13.877Z,5.10
2019-06-01T10:34:42.059Z,5.30
2019-06-01T10:37:09.691Z,5.63
2019-06-01T10:39:37.348Z,5.50
2019-06-01T10:42:05.574Z,5.78
2019-06-01T10:44:37.895Z,4.40
2019-06-01T10:47:03.010Z,6.10
2019-06-01T10:49:31.827Z,5.97
2019-06-01T10:52:00.015Z,6.20
2019-06-01T10:54:27.670Z,6.20
2019-06-01T10:56:55.930Z,3.60
2019-06-01T10:59:23.947Z,5.33
2019-06-01T11:01:51.919Z,5.97
2019-06-01T11:04:19.620Z,3.83
2019-06-01T11:06:48.844Z,3.63
2019-06-01T11:09:17.162Z,3.87
2019-06-01T11:11:44.959Z,11.20
2019-06-01T11:14:12.701Z,6.57
2019-06-01T11:16:41.768Z,4.67
2019-06-01T11:19:10.020Z,7.70
2019-06-01T11:21:37.705Z,4.30
2019-06-01T11:24:05.595Z,4.50
2019-06-01T11:26:33.540Z,5.17
2019-06-01T11:29:01.346Z,4.97
2019-06-01T11:31:29.416Z,8.43
2019-06-01T11:33:57.046Z,6.20
2019-06-01T11:36:24.850Z,6.87
2019-06-01T11:38:53.019Z,4.60
2019-06-01T11:41:21.112Z,5.57
2019-06-01T11:43:49.291Z,6.80
2019-06-01T11:46:17.315Z,6.67
2019-06-01T11:48:45.406Z,5.37
2019-06-01T11:51:13.347Z,4.70
2019-06-01T11:53:41.512Z,7.87
2019-06-01T11:56:09.781Z,7.20
2019-06-01T11:58:37.845Z,5.70
2019-06-01T12:01:06.224Z,5.27
2019-06-01T12:03:35.520Z,5.00
2019-06-01T12:06:03.380Z,5.97
2019-06-01T12:08:33.975Z,5.47
2019-06-01T12:11:00.981Z,5.50
2019-06-01T12:13:29.126Z,4.03
2019-06-01T12:15:57.554Z,5.87
2019-06-01T12:18:25.325Z,3.83
2019-06-01T12:20:53.703Z,9.70
2019-06-01T12:23:21.450Z,7.33
2019-06-01T12:25:50.371Z,4.40
2019-06-01T12:28:17.997Z,6.27
2019-06-01T12:30:45.982Z,5.13
2019-06-01T12:33:14.281Z,3.67
2019-06-01T12:35:42.050Z,5.23
2019-06-01T12:38:11.339Z,4.65
2019-06-01T12:40:39.778Z,5.53
2019-06-01T12:43:07.982Z,6.77
2019-06-01T12:45:36.096Z,6.83
2019-06-01T12:48:03.812Z,4.73
2019-06-01T12:50:31.495Z,6.30
2019-06-01T12:52:59.163Z,9.23
2019-06-01T12:55:27.579Z,6.70
2019-06-01T12:57:55.465Z,7.73
2019-06-01T13:00:23.667Z,6.23
2019-06-01T13:03:03.449Z,5.33
2019-06-01T13:05:22.414Z,6.00
2019-06-01T13:07:58.555Z,4.40
2019-06-01T13:10:19.466Z,5.60
2019-06-01T13:12:47.619Z,4.43
2019-06-01T13:15:15.805Z,5.10
2019-06-01T13:17:45.138Z,5.20
2019-06-01T13:20:13.040Z,5.53
2019-06-01T13:22:41.303Z,6.90
2019-06-01T13:25:09.733Z,5.30
2019-06-01T13:27:40.667Z,5.13
2019-06-01T13:30:07.557Z,4.37
2019-06-01T13:32:35.803Z,8.23
2019-06-01T13:35:05.817Z,5.47
2019-06-01T13:37:33.480Z,5.60
2019-06-01T13:40:01.585Z,4.97
2019-06-01T13:42:29.947Z,4.90
2019-06-01T13:44:57.838Z,4.57
2019-06-01T13:47:25.630Z,6.23
2019-06-01T13:49:54.139Z,5.43
2019-06-01T13:52:21.924Z,4.50
2019-06-01T13:54:50.603Z,8.53
2019-06-01T13:57:18.973Z,4.20
2019-06-01T13:59:48.677Z,6.13
2019-06-01T14:02:17.114Z,5.40
2019-06-01T14:04:45.185Z,5.50
2019-06-01T14:07:13.310Z,7.37
2019-06-01T14:09:40.981Z,3.63
2019-06-01T14:12:08.881Z,4.10
2019-06-01T14:14:36.572Z,3.83
2019-06-01T14:17:04.358Z,21.90
2019-06-01T14:19:32.763Z,10.80
2019-06-01T14:22:00.860Z,5.30
2019-06-01T14:24:28.488Z,5.17
2019-06-01T14:26:56.363Z,9.40
2019-06-01T14:29:24.426Z,5.50
2019-06-01T14:31:53.521Z,6.07
2019-06-01T14:34:21.753Z,6.50
2019-06-01T14:36:50.508Z,28.33
2019-06-01T14:39:18.842Z,33.17
2019-06-01T14:41:46.710Z,7.33
2019-06-01T14:44:14.520Z,5.73
2019-06-01T14:46:53.552Z,34.60
2019-06-01T14:49:12.373Z,17.90
2019-06-01T14:51:40.351Z,9.43
2019-06-01T14:54:08.494Z,9.00
2019-06-01T14:56:36.116Z,8.20
2019-06-01T14:59:04.159Z,10.67
2019-06-01T15:01:33.248Z,7.33
2019-06-01T15:04:01.301Z,5.83
2019-06-01T15:06:29.347Z,7.50
2019-06-01T15:09:15.855Z,7.77
2019-06-01T15:11:27.183Z,4.67
2019-06-01T15:13:56.437Z,4.37
2019-06-01T15:16:24.291Z,5.27
2019-06-01T15:18:51.926Z,4.03
2019-06-01T15:21:20.103Z,5.90
2019-06-01T15:23:47.872Z,4.37
2019-06-01T15:26:15.527Z,6.87
2019-06-01T15:28:43.644Z,4.23
2019-06-01T15:31:11.351Z,3.73
2019-06-01T15:33:39.512Z,7.87
2019-06-01T15:36:07.188Z,4.97
2019-06-01T15:38:35.268Z,4.30
2019-06-01T15:41:02.944Z,6.77
2019-06-01T15:43:30.570Z,5.53
2019-06-01T15:45:59.602Z,4.80
2019-06-01T15:48:27.964Z,6.10
2019-06-01T15:51:00.507Z,5.30
2019-06-01T15:53:24.975Z,5.83
2019-06-01T15:55:52.664Z,5.73
2019-06-01T15:58:20.417Z,5.33
2019-06-01T16:00:48.457Z,4.50
2019-06-01T16:03:16.280Z,4.67
2019-06-01T16:05:44.005Z,7.00
2019-06-01T16:08:11.722Z,4.53
2019-06-01T16:10:39.821Z,6.63
2019-06-01T16:13:07.781Z,7.40
2019-06-01T16:15:36.214Z,5.87
2019-06-01T16:18:04.310Z,4.00
2019-06-01T16:20:32.298Z,5.83
2019-06-01T16:23:00.325Z,5.60
2019-06-01T16:25:28.389Z,5.80
2019-06-01T16:27:56.653Z,5.10
2019-06-01T16:30:24.854Z,4.07
2019-06-01T16:32:52.971Z,4.87
2019-06-01T16:35:22.205Z,9.90
2019-06-01T16:37:49.885Z,4.67
2019-06-01T16:40:18.007Z,5.67
2019-06-01T16:42:45.689Z,6.20
2019-06-01T16:45:13.826Z,8.40
2019-06-01T16:47:41.536Z,10.50
2019-06-01T16:50:09.692Z,11.40
2019-06-01T16:52:37.973Z,11.87
2019-06-01T16:55:07.121Z,10.73
2019-06-01T16:57:35.426Z,12.03
2019-06-01T17:00:03.262Z,10.43
2019-06-01T17:02:31.870Z,9.80
2019-06-01T17:05:00.657Z,14.33
2019-06-01T17:07:28.514Z,15.70
2019-06-01T17:09:56.657Z,16.90
2019-06-01T17:12:24.994Z,12.07
2019-06-01T17:14:53.085Z,10.73
2019-06-01T17:17:21.222Z,10.97
2019-06-01T17:19:49.343Z,7.90
2019-06-01T17:22:17.037Z,6.93
2019-06-01T17:24:45.305Z,9.30
2019-06-01T17:27:12.938Z,9.87
2019-06-01T17:29:41.071Z,14.60
2019-06-01T17:32:20.126Z,16.17
2019-06-01T17:34:38.526Z,19.73
2019-06-01T17:37:06.853Z,15.13
2019-06-01T17:39:34.648Z,7.23
2019-06-01T17:42:02.945Z,20.03
2019-06-01T17:44:31.036Z,17.10
2019-06-01T17:46:59.895Z,10.07
2019-06-01T17:49:27.704Z,9.23
2019-06-01T17:51:55.754Z,8.73
2019-06-01T17:54:23.538Z,7.53
2019-06-01T17:56:51.333Z,9.03
2019-06-01T17:59:19.371Z,7.60
2019-06-01T18:01:47.070Z,6.67
2019-06-01T18:04:14.798Z,7.53
2019-06-01T18:06:42.416Z,8.83
2019-06-01T18:09:10.332Z,6.67
2019-06-01T18:11:38.509Z,9.00
2019-06-01T18:14:08.227Z,8.63
2019-06-01T18:16:36.323Z,8.33
2019-06-01T18:19:04.465Z,7.33
2019-06-01T18:21:33.494Z,8.07
2019-06-01T18:24:04.346Z,14.50
2019-06-01T18:26:31.080Z,10.83
2019-06-01T18:28:58.925Z,8.73
2019-06-01T18:31:27.063Z,7.23
2019-06-01T18:33:54.719Z,8.87
2019-06-01T18:36:22.777Z,8.63
2019-06-01T18:38:50.498Z,10.03
2019-06-01T18:41:20.185Z,7.83
2019-06-01T18:43:48.122Z,9.53
2019-06-01T18:46:16.336Z,11.70
2019-06-01T18:48:44.402Z,9.73
2019-06-01T18:51:12.630Z,11.73
2019-06-01T18:53:40.696Z,9.10
2019-06-01T18:56:10.078Z,9.57
2019-06-01T18:58:38.383Z,9.77
2019-06-01T19:01:06.828Z,33.80
2019-06-01T19:03:34.448Z,33.23
2019-06-01T19:06:02.180Z,49.40
2019-06-01T19:08:29.898Z,66.73
2019-06-01T19:10:57.585Z,34.40
2019-06-01T19:13:25.308Z,22.00
2019-06-01T19:15:53.371Z,17.57
2019-06-01T19:18:21.491Z,20.07
2019-06-01T19:20:49.113Z,19.80
2019-06-01T19:23:21.731Z,17.90
2019-06-01T19:25:46.540Z,14.13
2019-06-01T19:28:15.304Z,17.03
2019-06-01T19:30:43.863Z,17.53
2019-06-01T19:33:15.472Z,24.77
2019-06-01T19:35:41.312Z,38.73
2019-06-01T19:38:09.428Z,31.63
2019-06-01T19:40:38.122Z,18.80
2019-06-01T19:43:07.338Z,15.93
2019-06-01T19:45:35.725Z,19.77
2019-06-01T19:48:03.646Z,29.17
2019-06-01T19:50:31.695Z,24.43
2019-06-01T19:52:59.819Z,26.30
2019-06-01T19:55:27.921Z,23.27
2019-06-01T19:57:55.845Z,41.03
2019-06-01T20:00:25.110Z,24.27
2019-06-01T20:02:52.790Z,47.53
2019-06-01T20:05:20.499Z,49.97
2019-06-01T20:07:48.209Z,49.67
2019-06-01T20:10:16.350Z,59.63
2019-06-01T20:12:44.266Z,30.67
2019-06-01T20:15:13.189Z,27.23
2019-06-01T20:17:41.073Z,32.43
2019-06-01T20:20:10.631Z,23.27
2019-06-01T20:22:39.002Z,20.23
2019-06-01T20:25:07.064Z,15.00
2019-06-01T20:27:34.746Z,14.77
2019-06-01T20:30:02.466Z,17.33
2019-06-01T20:32:30.652Z,17.97
2019-06-01T20:34:58.702Z,18.00
2019-06-01T20:37:26.407Z,18.57
2019-06-01T20:39:54.670Z,13.77
2019-06-01T20:42:31.719Z,11.83
2019-06-01T20:44:52.188Z,19.77
2019-06-01T20:47:20.971Z,15.50
2019-06-01T20:49:49.098Z,12.83
2019-06-01T20:52:17.159Z,14.67
2019-06-01T20:54:44.796Z,12.13
2019-06-01T20:57:13.334Z,12.23
2019-06-01T20:59:41.105Z,21.17
2019-06-01T21:02:08.846Z,13.03
2019-06-01T21:04:36.533Z,12.70
2019-06-01T21:07:04.376Z,12.23
2019-06-01T21:09:32.425Z,11.90
2019-06-01T21:12:00.155Z,9.53
2019-06-01T21:14:28.072Z,11.83
2019-06-01T21:16:56.112Z,11.90
2019-06-01T21:19:24.464Z,11.90
2019-06-01T21:21:52.307Z,15.63
2019-06-01T21:24:21.125Z,12.73
2019-06-01T21:26:49.402Z,18.10
2019-06-01T21:29:18.733Z,19.43
2019-06-01T21:31:46.478Z,15.33
2019-06-01T21:34:15.085Z,12.33
2019-06-01T21:36:43.229Z,16.00
2019-06-01T21:39:11.488Z,10.33
2019-06-01T21:41:39.672Z,12.77
2019-06-01T21:44:07.391Z,16.27
2019-06-01T21:46:35.481Z,14.63
2019-06-01T21:49:03.480Z,21.90
2019-06-01T21:51:31.195Z,17.00
2019-06-01T21:53:58.942Z,21.40
2019-06-01T21:56:26.900Z,17.23
2019-06-01T21:58:54.711Z,15.83
2019-06-01T22:01:22.849Z,15.10
2019-06-01T22:03:51.357Z,17.40
2019-06-01T22:06:19.604Z,19.27
2019-06-01T22:08:52.663Z,14.53
2019-06-01T22:11:17.351Z,14.57
2019-06-01T22:13:45.065Z,17.00
2019-06-01T22:16:12.786Z,18.27
2019-06-01T22:18:40.755Z,14.57
2019-06-01T22:21:08.384Z,17.13
2019-06-01T22:23:36.352Z,12.20
2019-06-01T22:26:04.113Z,12.97
2019-06-01T22:28:31.816Z,12.67
2019-06-01T22:30:59.960Z,15.00
2019-06-01T22:33:28.818Z,13.67
2019-06-01T22:35:56.721Z,11.23
2019-06-01T22:38:25.701Z,10.43
2019-06-01T22:40:53.514Z,8.87
2019-06-01T22:43:36.822Z,10.70
2019-06-01T22:45:51.140Z,11.07
2019-06-01T22:48:18.827Z,13.43
2019-06-01T22:50:46.997Z,14.90
2019-06-01T22:53:14.743Z,17.67
2019-06-01T22:55:42.466Z,14.77
2019-06-01T22:58:10.580Z,13.50
2019-06-01T23:00:38.345Z,11.67
2019-06-01T23:03:07.198Z,13.03
2019-06-01T23:05:35.223Z,11.83
2019-06-01T23:08:02.933Z,14.70
2019-06-01T23:10:34.973Z,10.90
2019-06-01T23:13:00.501Z,10.67
2019-06-01T23:15:29.732Z,10.57
2019-06-01T23:17:57.848Z,15.70
2019-06-01T23:20:25.901Z,10.27
2019-06-01T23:22:54.073Z,11.33
2019-06-01T23:25:22.522Z,11.00
2019-06-01T23:27:50.420Z,14.43
2019-06-01T23:30:18.477Z,14.23
2019-06-01T23:32:46.211Z,11.43
2019-06-01T23:35:13.914Z,12.17
2019-06-01T23:37:41.584Z,11.90
2019-06-01T23:40:09.335Z,19.83
2019-06-01T23:42:36.997Z,16.37
2019-06-01T23:45:08.111Z,13.87
2019-06-01T23:47:36.351Z,12.53
2019-06-01T23:50:04.339Z,19.57
2019-06-01T23:52:31.992Z,17.67
2019-06-01T23:55:00.617Z,14.10
2019-06-01T23:57:30.070Z,15.07
2019-06-01T23:59:58.312Z,14.17
